createdAt,value
2017-03-20T00:00:22.826Z,9.48
2017-03-20T00:01:22.857Z,9.47
2017-03-20T00:02:22.890Z,9.5
2017-03-20T00:03:22.925Z,9.48
2017-03-20T00:04:22.956Z,9.47
2017-03-20T00:05:23.048Z,9.5
2017-03-20T00:06:23.014Z,9.48
2017-03-20T00:07:23.046Z,9.5
2017-03-20T00:08:23.066Z,9.5
2017-03-20T00:09:23.115Z,9.5
2017-03-20T00:10:23.130Z,9.52
2017-03-20T00:11:23.158Z,9.48
2017-03-20T00:12:23.197Z,9.52
2017-03-20T00:13:23.218Z,9.5
2017-03-20T00:14:23.259Z,9.45
2017-03-20T00:15:23.277Z,9.44
2017-03-20T00:16:23.298Z,9.45
2017-03-20T00:17:23.326Z,9.47
2017-03-20T00:18:23.366Z,9.48
2017-03-20T00:19:23.395Z,9.48
2017-03-20T00:20:23.416Z,9.45
2017-03-20T00:21:23.459Z,9.5
2017-03-20T00:22:23.480Z,9.45
2017-03-20T00:23:23.535Z,9.48
2017-03-20T00:24:23.537Z,9.47
2017-03-20T00:25:23.568Z,9.42
2017-03-20T00:26:23.590Z,9.41
2017-03-20T00:27:23.626Z,9.48
2017-03-20T00:28:23.657Z,9.48
2017-03-20T00:29:23.698Z,9.38
2017-03-20T00:30:23.710Z,9.45
2017-03-20T00:31:23.740Z,9.41
2017-03-20T00:32:23.764Z,9.45
2017-03-20T00:33:23.806Z,9.35
2017-03-20T00:34:23.957Z,9.47
2017-03-20T00:35:23.858Z,9.47
2017-03-20T00:36:23.888Z,9.45
2017-03-20T00:37:23.915Z,9.48
2017-03-20T00:38:23.946Z,9.47
2017-03-20T00:39:23.995Z,9.42
2017-03-20T00:40:24.007Z,9.38
2017-03-20T00:41:24.041Z,9.41
2017-03-20T00:42:24.065Z,9.39
2017-03-20T00:43:24.107Z,9.48
2017-03-20T00:44:24.127Z,9.48
2017-03-20T00:45:24.149Z,9.48
2017-03-20T00:46:24.196Z,9.52
2017-03-20T00:47:24.213Z,9.52
2017-03-20T00:48:24.254Z,9.39
2017-03-20T00:49:24.280Z,9.5
2017-03-20T00:50:24.301Z,9.42
2017-03-20T00:51:24.326Z,9.52
2017-03-20T00:52:24.357Z,9.48
2017-03-20T00:53:24.392Z,9.48
2017-03-20T00:54:24.432Z,9.45
2017-03-20T00:55:24.452Z,9.39
2017-03-20T00:56:24.548Z,9.47
2017-03-20T00:57:24.517Z,9.38
2017-03-20T00:58:24.532Z,9.45
2017-03-20T00:59:24.574Z,9.41
2017-03-20T01:00:24.603Z,9.37
2017-03-20T01:01:24.631Z,9.47
2017-03-20T01:02:24.691Z,9.41
2017-03-20T01:03:24.680Z,9.39
2017-03-20T01:04:24.710Z,9.45
2017-03-20T01:05:24.762Z,9.44
2017-03-20T01:06:24.777Z,9.42
2017-03-20T01:07:24.937Z,9.47
2017-03-20T01:08:24.833Z,9.41
2017-03-20T01:09:24.860Z,9.41
2017-03-20T01:10:24.887Z,9.37
2017-03-20T01:11:24.916Z,9.41
2017-03-20T01:12:24.956Z,9.41
2017-03-20T01:13:24.983Z,9.41
2017-03-20T01:14:25.027Z,9.39
2017-03-20T01:15:25.035Z,9.41
2017-03-20T01:16:25.156Z,9.41
2017-03-20T01:17:25.093Z,9.39
2017-03-20T01:18:25.123Z,9.37
2017-03-20T01:19:25.145Z,9.39
2017-03-20T01:20:25.179Z,9.41
2017-03-20T01:21:25.207Z,9.38
2017-03-20T01:22:25.239Z,9.37
2017-03-20T01:23:25.279Z,9.38
2017-03-20T01:24:25.300Z,9.37
2017-03-20T01:25:25.328Z,9.44
2017-03-20T01:26:25.359Z,9.38
2017-03-20T01:27:25.389Z,9.39
2017-03-20T01:28:25.430Z,9.45
2017-03-20T01:29:25.451Z,9.38
2017-03-20T01:30:25.470Z,9.39
2017-03-20T01:31:25.556Z,9.35
2017-03-20T01:32:25.537Z,9.34
2017-03-20T01:33:25.560Z,9.37
2017-03-20T01:34:25.595Z,9.35
2017-03-20T01:35:28.225Z,9.32
2017-03-20T01:36:25.655Z,9.38
2017-03-20T01:37:25.681Z,9.37
2017-03-20T01:38:25.711Z,9.41
2017-03-20T01:39:25.733Z,9.42
2017-03-20T01:40:25.765Z,9.37
2017-03-20T01:41:25.795Z,9.41
2017-03-20T01:42:25.869Z,9.35
2017-03-20T01:43:25.881Z,9.35
2017-03-20T01:44:25.875Z,9.41
2017-03-20T01:45:25.925Z,9.41
2017-03-20T01:46:25.939Z,9.38
2017-03-20T01:47:26.077Z,9.34
2017-03-20T01:48:26.007Z,9.34
2017-03-20T01:49:26.035Z,9.42
2017-03-20T01:50:26.064Z,9.41
2017-03-20T01:51:26.081Z,9.41
2017-03-20T01:52:26.111Z,9.37
2017-03-20T01:53:26.148Z,9.34
2017-03-20T01:54:26.176Z,9.3
2017-03-20T01:55:26.209Z,9.41
2017-03-20T01:56:26.236Z,9.29
2017-03-20T01:57:26.255Z,9.39
2017-03-20T01:58:26.293Z,9.34
2017-03-20T01:59:26.322Z,9.27
2017-03-20T02:00:26.344Z,9.26
2017-03-20T02:01:26.376Z,9.35
2017-03-20T02:02:26.409Z,9.29
2017-03-20T02:03:26.450Z,9.37
2017-03-20T02:04:26.475Z,9.3
2017-03-20T02:05:26.496Z,9.29
2017-03-20T02:06:26.521Z,9.29
2017-03-20T02:07:26.564Z,9.3
2017-03-20T02:08:26.611Z,9.27
2017-03-20T02:09:26.634Z,9.34
2017-03-20T02:10:26.634Z,9.29
2017-03-20T02:11:26.662Z,9.29
2017-03-20T02:12:26.701Z,9.23
2017-03-20T02:13:26.758Z,9.34
2017-03-20T02:14:26.832Z,9.34
2017-03-20T02:15:26.788Z,9.34
2017-03-20T02:16:26.819Z,9.26
2017-03-20T02:17:26.844Z,9.37
2017-03-20T02:18:26.880Z,9.27
2017-03-20T02:19:26.902Z,9.3
2017-03-20T02:20:26.981Z,9.34
2017-03-20T02:21:26.959Z,9.3
2017-03-20T02:22:26.989Z,9.35
2017-03-20T02:23:27.030Z,9.34
2017-03-20T02:24:27.055Z,9.27
2017-03-20T02:25:27.087Z,9.32
2017-03-20T02:26:27.102Z,9.29
2017-03-20T02:27:27.155Z,9.37
2017-03-20T02:28:27.163Z,9.35
2017-03-20T02:29:27.196Z,9.32
2017-03-20T02:31:25.488Z,9.21
2017-03-20T02:31:37.559Z,9.24
2017-03-20T02:32:38.043Z,9.23
2017-03-20T02:33:38.533Z,9.27
2017-03-20T02:34:39.024Z,9.32
2017-03-20T02:35:39.464Z,9.26
2017-03-20T02:36:39.933Z,9.27
2017-03-20T02:37:40.406Z,9.2
2017-03-20T02:38:40.880Z,9.35
2017-03-20T02:39:41.369Z,9.21
2017-03-20T02:40:41.833Z,9.3
2017-03-20T02:41:42.323Z,9.32
2017-03-20T02:42:42.825Z,9.34
2017-03-20T02:43:43.316Z,9.29
2017-03-20T02:44:43.818Z,9.32
2017-03-20T02:45:44.295Z,9.35
2017-03-20T02:46:44.789Z,9.32
2017-03-20T02:47:45.258Z,9.21
2017-03-20T02:48:45.759Z,9.29
2017-03-20T02:49:46.260Z,9.3
2017-03-20T02:50:46.731Z,9.34
2017-03-20T02:51:47.215Z,9.29
2017-03-20T02:52:47.697Z,9.27
2017-03-20T02:53:48.193Z,9.27
2017-03-20T02:54:48.686Z,9.32
2017-03-20T02:55:49.153Z,9.26
2017-03-20T02:56:49.629Z,9.29
2017-03-20T02:57:50.090Z,9.32
2017-03-20T02:58:50.576Z,9.32
2017-03-20T02:59:51.063Z,9.42
2017-03-20T03:00:51.542Z,9.34
2017-03-20T03:01:52.048Z,9.3
2017-03-20T03:02:52.049Z,9.35
2017-03-20T03:03:52.550Z,9.27
2017-03-20T03:04:53.018Z,9.26
2017-03-20T03:05:53.532Z,9.32
2017-03-20T03:06:54.026Z,9.35
2017-03-20T03:07:54.490Z,9.35
2017-03-20T03:08:54.963Z,9.34
2017-03-20T03:09:55.492Z,9.29
2017-03-20T03:10:55.968Z,9.39
2017-03-20T03:11:56.462Z,9.41
2017-03-20T03:12:56.956Z,9.41
2017-03-20T03:13:57.426Z,9.42
2017-03-20T03:14:57.945Z,9.37
2017-03-20T03:15:58.379Z,9.38
2017-03-20T03:16:58.867Z,9.38
2017-03-20T03:17:59.326Z,9.41
2017-03-20T03:18:59.796Z,9.41
2017-03-20T03:20:00.292Z,9.41
2017-03-20T03:21:00.785Z,9.34
2017-03-20T03:22:01.238Z,9.38
2017-03-20T03:23:01.731Z,9.41
2017-03-20T03:24:02.222Z,9.38
2017-03-20T03:25:02.703Z,9.38
2017-03-20T03:26:03.163Z,9.42
2017-03-20T03:27:03.628Z,9.37
2017-03-20T03:28:04.121Z,9.38
2017-03-20T03:29:04.634Z,9.41
2017-03-20T03:30:05.114Z,9.37
2017-03-20T03:31:05.591Z,9.44
2017-03-20T03:32:06.082Z,9.42
2017-03-20T03:33:06.553Z,9.45
2017-03-20T03:34:07.047Z,9.44
2017-03-20T03:35:07.507Z,9.39
2017-03-20T03:36:07.976Z,9.41
2017-03-20T03:37:08.468Z,9.41
2017-03-20T03:38:08.958Z,9.42
2017-03-20T03:39:09.439Z,9.44
2017-03-20T03:40:09.961Z,9.38
2017-03-20T03:41:10.433Z,9.42
2017-03-20T03:42:10.889Z,9.42
2017-03-20T03:43:11.387Z,9.35
2017-03-20T03:44:11.873Z,9.38
2017-03-20T03:45:12.309Z,9.44
2017-03-20T03:46:12.782Z,9.42
2017-03-20T03:47:13.251Z,9.39
2017-03-20T03:48:13.745Z,9.41
2017-03-20T03:49:14.201Z,9.39
2017-03-20T03:50:14.725Z,9.39
2017-03-20T03:51:15.207Z,9.37
2017-03-20T03:52:15.699Z,9.38
2017-03-20T03:53:16.180Z,9.45
2017-03-20T03:54:16.624Z,9.41
2017-03-20T03:55:17.079Z,9.39
2017-03-20T03:56:17.548Z,9.38
2017-03-20T03:57:18.073Z,9.38
2017-03-20T03:58:18.541Z,9.39
2017-03-20T03:59:19.038Z,9.41
2017-03-20T04:00:19.523Z,9.42
2017-03-20T04:01:20.004Z,9.39
2017-03-20T04:02:20.492Z,9.37
2017-03-20T04:03:20.977Z,9.39
2017-03-20T04:04:21.468Z,9.32
2017-03-20T04:05:21.933Z,9.29
2017-03-20T04:06:22.402Z,9.27
2017-03-20T04:07:22.897Z,9.19
2017-03-20T04:08:23.401Z,9.23
2017-03-20T04:09:23.914Z,9.29
2017-03-20T04:10:24.390Z,9.19
2017-03-20T04:11:24.850Z,9.21
2017-03-20T04:12:25.323Z,9.24
2017-03-20T04:13:25.792Z,9.32
2017-03-20T04:14:26.271Z,9.37
2017-03-20T04:15:26.741Z,9.27
2017-03-20T04:16:27.275Z,9.27
2017-03-20T04:17:27.745Z,9.37
2017-03-20T04:18:28.223Z,9.38
2017-03-20T04:19:28.710Z,9.38
2017-03-20T04:20:29.198Z,9.37
2017-03-20T04:21:29.201Z,9.38
2017-03-20T04:22:29.693Z,9.38
2017-03-20T04:23:30.203Z,9.38
2017-03-20T04:24:30.691Z,9.39
2017-03-20T04:25:31.190Z,9.37
2017-03-20T04:26:31.661Z,9.37
2017-03-20T04:27:32.147Z,9.37
2017-03-20T04:28:32.626Z,9.38
2017-03-20T04:29:33.108Z,9.42
2017-03-20T04:30:33.608Z,9.41
2017-03-20T04:31:34.345Z,9.34
2017-03-20T04:32:34.809Z,9.39
2017-03-20T04:33:35.289Z,9.41
2017-03-20T04:34:35.769Z,9.39
2017-03-20T04:35:36.302Z,9.38
2017-03-20T04:36:36.760Z,9.44
2017-03-20T04:37:37.200Z,9.35
2017-03-20T04:38:37.684Z,9.39
2017-03-20T04:39:38.148Z,9.38
2017-03-20T04:40:38.622Z,9.42
2017-03-20T04:41:39.101Z,9.44
2017-03-20T04:42:39.571Z,9.38
2017-03-20T04:43:40.070Z,9.44
2017-03-20T04:44:40.523Z,9.41
2017-03-20T04:45:41.010Z,9.41
2017-03-20T04:46:41.492Z,9.41
2017-03-20T04:47:41.972Z,9.45
2017-03-20T04:48:42.456Z,9.48
2017-03-20T04:49:42.901Z,9.48
2017-03-20T04:50:43.389Z,9.45
2017-03-20T04:51:43.821Z,9.52
2017-03-20T04:52:44.297Z,9.47
2017-03-20T04:53:44.781Z,9.47
2017-03-20T04:54:45.249Z,9.44
2017-03-20T04:55:45.729Z,9.47
2017-03-20T04:56:46.194Z,9.5
2017-03-20T04:57:46.659Z,9.48
2017-03-20T04:58:47.155Z,9.48
2017-03-20T04:59:47.645Z,9.47
2017-03-20T05:00:48.060Z,9.5
2017-03-20T05:01:48.486Z,9.47
2017-03-20T05:02:48.877Z,9.52
2017-03-20T05:03:49.267Z,9.53
2017-03-20T05:04:49.687Z,9.45
2017-03-20T05:05:50.095Z,9.53
2017-03-20T05:06:50.488Z,9.55
2017-03-20T05:07:50.889Z,9.48
2017-03-20T05:08:51.290Z,9.6
2017-03-20T05:09:51.706Z,9.55
2017-03-20T05:10:52.108Z,9.57
2017-03-20T05:11:52.506Z,9.6
2017-03-20T05:12:52.930Z,9.6
2017-03-20T05:13:53.364Z,9.59
2017-03-20T05:14:53.777Z,9.57
2017-03-20T05:15:54.188Z,9.6
2017-03-20T05:16:54.574Z,9.66
2017-03-20T05:17:54.974Z,9.57
2017-03-20T05:18:55.387Z,9.52
2017-03-20T05:19:55.810Z,9.55
2017-03-20T05:20:56.269Z,9.67
2017-03-20T05:21:56.667Z,9.66
2017-03-20T05:22:57.061Z,9.62
2017-03-20T05:23:57.505Z,9.63
2017-03-20T05:24:57.898Z,9.64
2017-03-20T05:25:58.351Z,9.62
2017-03-20T05:26:58.762Z,9.6
2017-03-20T05:27:59.178Z,9.64
2017-03-20T05:28:59.583Z,9.64
2017-03-20T05:30:00.023Z,9.66
2017-03-20T05:31:00.407Z,9.63
2017-03-20T05:32:00.794Z,9.62
2017-03-20T05:33:01.194Z,9.59
2017-03-20T05:34:01.599Z,9.6
2017-03-20T05:35:02.010Z,9.62
2017-03-20T05:36:02.435Z,9.64
2017-03-20T05:37:02.821Z,9.62
2017-03-20T05:38:03.254Z,9.64
2017-03-20T05:39:03.703Z,9.62
2017-03-20T05:40:04.117Z,9.63
2017-03-20T05:41:04.548Z,9.75
2017-03-20T05:42:04.996Z,9.63
2017-03-20T05:43:05.408Z,9.64
2017-03-20T05:44:05.814Z,9.75
2017-03-20T05:45:06.236Z,9.71
2017-03-20T05:46:06.640Z,9.72
2017-03-20T05:47:07.034Z,9.75
2017-03-20T05:48:07.439Z,9.77
2017-03-20T05:49:07.844Z,9.75
2017-03-20T05:50:08.252Z,9.72
2017-03-20T05:51:08.656Z,9.77
2017-03-20T05:52:09.062Z,9.8
2017-03-20T05:53:09.462Z,9.74
2017-03-20T05:54:09.873Z,9.74
2017-03-20T05:55:10.286Z,9.78
2017-03-20T05:56:10.716Z,9.75
2017-03-20T05:57:11.133Z,9.74
2017-03-20T05:58:11.536Z,9.75
2017-03-20T05:59:11.947Z,9.78
2017-03-20T06:00:12.351Z,9.78
2017-03-20T06:01:12.733Z,9.82
2017-03-20T06:02:13.138Z,9.85
2017-03-20T06:03:13.544Z,9.78
2017-03-20T06:04:13.953Z,9.78
2017-03-20T06:05:14.355Z,9.89
2017-03-20T06:06:14.838Z,9.82
2017-03-20T06:07:15.253Z,9.78
2017-03-20T06:08:15.643Z,9.81
2017-03-20T06:09:16.045Z,9.75
2017-03-20T06:10:16.554Z,9.81
2017-03-20T06:11:16.987Z,9.85
2017-03-20T06:12:17.399Z,9.84
2017-03-20T06:13:17.785Z,9.84
2017-03-20T06:14:18.194Z,9.8
2017-03-20T06:15:18.780Z,9.77
2017-03-20T06:16:19.182Z,9.81
2017-03-20T06:17:19.587Z,9.8
2017-03-20T06:18:19.996Z,9.77
2017-03-20T06:19:20.385Z,9.8
2017-03-20T06:20:20.945Z,9.8
2017-03-20T06:21:21.350Z,9.88
2017-03-20T06:22:21.744Z,9.8
2017-03-20T06:23:22.140Z,9.84
2017-03-20T06:24:22.549Z,9.85
2017-03-20T06:25:22.944Z,9.89
2017-03-20T06:26:23.370Z,9.89
2017-03-20T06:27:23.765Z,9.84
2017-03-20T06:28:24.211Z,9.82
2017-03-20T06:29:24.642Z,9.84
2017-03-20T06:30:25.046Z,9.85
2017-03-20T06:31:25.443Z,9.89
2017-03-20T06:32:25.842Z,9.89
2017-03-20T06:33:26.241Z,9.85
2017-03-20T06:34:26.651Z,9.85
2017-03-20T06:35:27.075Z,9.8
2017-03-20T06:36:27.507Z,9.84
2017-03-20T06:37:27.886Z,9.89
2017-03-20T06:38:28.289Z,9.85
2017-03-20T06:39:28.693Z,9.9
2017-03-20T06:40:29.086Z,9.89
2017-03-20T06:41:29.486Z,9.96
2017-03-20T06:42:29.888Z,9.96
2017-03-20T06:43:30.342Z,9.98
2017-03-20T06:44:30.784Z,10
2017-03-20T06:45:31.188Z,10
2017-03-20T06:46:31.562Z,10.07
2017-03-20T06:47:31.953Z,10.07
2017-03-20T06:48:32.369Z,10.05
2017-03-20T06:49:32.774Z,10.08
2017-03-20T06:50:33.160Z,10.02
2017-03-20T06:51:33.560Z,10.17
2017-03-20T06:52:33.989Z,10.03
2017-03-20T06:53:34.392Z,10.1
2017-03-20T06:54:34.806Z,10.15
2017-03-20T06:55:35.201Z,10.13
2017-03-20T06:56:35.600Z,10.13
2017-03-20T06:57:36.020Z,10.18
2017-03-20T06:58:36.420Z,10.14
2017-03-20T06:59:36.826Z,10.17
2017-03-20T07:00:37.203Z,10.15
2017-03-20T07:01:37.604Z,10.14
2017-03-20T07:02:38.046Z,10.23
2017-03-20T07:03:38.499Z,10.18
2017-03-20T07:04:38.902Z,10.25
2017-03-20T07:05:39.346Z,10.2
2017-03-20T07:06:39.754Z,10.2
2017-03-20T07:07:40.155Z,10.21
2017-03-20T07:08:40.571Z,10.18
2017-03-20T07:09:40.985Z,10.23
2017-03-20T07:10:41.432Z,10.2
2017-03-20T07:11:41.827Z,10.26
2017-03-20T07:12:42.215Z,10.26
2017-03-20T07:13:42.617Z,10.23
2017-03-20T07:14:43.026Z,10.29
2017-03-20T07:15:43.425Z,10.26
2017-03-20T07:16:43.828Z,10.33
2017-03-20T07:17:44.270Z,10.35
2017-03-20T07:18:44.672Z,10.28
2017-03-20T07:19:45.076Z,10.28
2017-03-20T07:20:45.474Z,10.23
2017-03-20T07:21:45.869Z,10.32
2017-03-20T07:22:46.271Z,10.25
2017-03-20T07:23:46.677Z,10.25
2017-03-20T07:24:47.072Z,10.29
2017-03-20T07:25:47.478Z,10.31
2017-03-20T07:26:47.924Z,10.29
2017-03-20T07:27:48.336Z,10.39
2017-03-20T07:28:48.752Z,10.33
2017-03-20T07:29:49.160Z,10.32
2017-03-20T07:30:49.559Z,10.31
2017-03-20T07:31:49.942Z,10.31
2017-03-20T07:32:50.377Z,10.33
2017-03-20T07:33:50.781Z,10.28
2017-03-20T07:34:51.170Z,10.36
2017-03-20T07:35:51.573Z,10.35
2017-03-20T07:36:51.966Z,10.31
2017-03-20T07:37:52.396Z,10.32
2017-03-20T07:38:52.792Z,10.41
2017-03-20T07:39:53.206Z,10.44
2017-03-20T07:40:53.606Z,10.41
2017-03-20T07:41:54.005Z,10.47
2017-03-20T07:42:54.405Z,10.46
2017-03-20T07:43:54.805Z,10.36
2017-03-20T07:44:55.230Z,10.38
2017-03-20T07:45:55.642Z,10.39
2017-03-20T07:46:56.048Z,10.39
2017-03-20T07:47:56.501Z,10.52
2017-03-20T07:48:56.903Z,10.38
2017-03-20T07:49:57.297Z,10.55
2017-03-20T07:50:57.708Z,10.49
2017-03-20T07:51:58.138Z,10.39
2017-03-20T07:52:58.546Z,10.51
2017-03-20T07:53:58.961Z,10.54
2017-03-20T07:54:59.351Z,10.52
2017-03-20T07:55:59.763Z,10.58
2017-03-20T07:57:00.647Z,10.59
2017-03-20T07:58:00.678Z,10.54
2017-03-20T07:59:00.711Z,10.66
2017-03-20T08:00:00.745Z,10.61
2017-03-20T08:01:00.770Z,10.57
2017-03-20T08:02:00.768Z,10.59
2017-03-20T08:03:00.830Z,10.61
2017-03-20T08:04:00.873Z,10.54
2017-03-20T08:05:00.899Z,10.58
2017-03-20T08:06:00.908Z,10.51
2017-03-20T08:07:00.953Z,10.49
2017-03-20T08:08:00.986Z,10.51
2017-03-20T08:09:01.020Z,10.54
2017-03-20T08:10:01.058Z,10.57
2017-03-20T08:11:01.056Z,10.66
2017-03-20T08:12:01.084Z,10.67
2017-03-20T08:13:01.138Z,10.8
2017-03-20T08:14:01.171Z,10.76
2017-03-20T08:15:01.201Z,10.79
2017-03-20T08:16:01.221Z,10.84
2017-03-20T08:17:01.268Z,10.77
2017-03-20T08:18:01.286Z,10.85
2017-03-20T08:19:01.326Z,10.98
2017-03-20T08:20:01.345Z,11.05
2017-03-20T08:21:01.388Z,10.97
2017-03-20T08:22:01.422Z,11.05
2017-03-20T08:23:01.448Z,11.09
2017-03-20T08:24:01.484Z,11.15
2017-03-20T08:25:01.485Z,11.21
2017-03-20T08:26:01.530Z,11.16
2017-03-20T08:27:01.582Z,11.18
2017-03-20T08:28:01.630Z,11.34
2017-03-20T08:29:01.663Z,11.33
2017-03-20T08:30:01.697Z,11.41
2017-03-20T08:31:01.702Z,11.43
2017-03-20T08:32:01.716Z,11.49
2017-03-20T08:33:01.748Z,11.43
2017-03-20T08:34:01.788Z,11.39
2017-03-20T08:35:01.818Z,11.53
2017-03-20T08:36:01.852Z,11.52
2017-03-20T08:37:01.877Z,11.64
2017-03-20T08:38:01.900Z,11.84
2017-03-20T08:39:01.938Z,11.84
2017-03-20T08:40:01.975Z,11.91
2017-03-20T08:41:01.992Z,11.98
2017-03-20T08:42:02.038Z,11.97
2017-03-20T08:43:02.067Z,12.08
2017-03-20T08:44:02.102Z,12
2017-03-20T08:45:02.235Z,11.94
2017-03-20T08:46:02.158Z,11.91
2017-03-20T08:47:02.185Z,11.78
2017-03-20T08:48:02.219Z,11.82
2017-03-20T08:49:02.297Z,11.81
2017-03-20T08:50:02.425Z,11.81
2017-03-20T08:51:02.320Z,11.7
2017-03-20T08:52:02.359Z,11.68
2017-03-20T08:53:02.391Z,11.68
2017-03-20T08:54:02.408Z,11.81
2017-03-20T08:55:02.719Z,11.86
2017-03-20T08:56:02.739Z,11.84
2017-03-20T08:57:02.822Z,11.94
2017-03-20T08:58:02.802Z,11.98
2017-03-20T08:59:02.855Z,11.91
2017-03-20T09:00:02.850Z,11.91
2017-03-20T09:01:02.957Z,11.95
2017-03-20T09:02:02.904Z,12.05
2017-03-20T09:03:02.693Z,11.95
2017-03-20T09:04:02.732Z,11.98
2017-03-20T09:05:02.760Z,11.91
2017-03-20T09:06:02.793Z,11.91
2017-03-20T09:07:02.819Z,11.85
2017-03-20T09:08:02.853Z,11.95
2017-03-20T09:09:02.889Z,11.85
2017-03-20T09:10:02.919Z,11.91
2017-03-20T09:11:02.949Z,11.88
2017-03-20T09:12:02.991Z,11.94
2017-03-20T09:13:03.018Z,11.89
2017-03-20T09:14:03.039Z,11.94
2017-03-20T09:15:03.103Z,12.07
2017-03-20T09:16:03.113Z,12.1
2017-03-20T09:17:03.138Z,12.08
2017-03-20T09:18:03.187Z,12
2017-03-20T09:19:03.219Z,11.98
2017-03-20T09:20:03.247Z,11.82
2017-03-20T09:21:03.268Z,11.89
2017-03-20T09:22:03.292Z,11.84
2017-03-20T09:23:03.338Z,11.89
2017-03-20T09:24:03.371Z,11.71
2017-03-20T09:25:03.615Z,11.82
2017-03-20T09:26:03.447Z,11.85
2017-03-20T09:27:03.461Z,11.82
2017-03-20T09:28:03.485Z,11.86
2017-03-20T09:29:03.532Z,11.94
2017-03-20T09:30:03.558Z,11.91
2017-03-20T09:31:03.595Z,11.91
2017-03-20T09:32:03.616Z,12.03
2017-03-20T09:33:03.655Z,11.91
2017-03-20T09:34:03.694Z,12.08
2017-03-20T09:35:03.755Z,11.88
2017-03-20T09:36:03.746Z,11.95
2017-03-20T09:37:03.773Z,12.03
2017-03-20T09:38:03.847Z,11.94
2017-03-20T09:39:03.875Z,11.97
2017-03-20T09:40:03.875Z,11.95
2017-03-20T09:41:03.914Z,11.89
2017-03-20T09:42:03.926Z,11.95
2017-03-20T09:43:03.969Z,11.85
2017-03-20T09:44:04.002Z,11.86
2017-03-20T09:45:04.033Z,11.82
2017-03-20T09:46:04.068Z,11.84
2017-03-20T09:47:04.081Z,11.79
2017-03-20T09:48:04.128Z,11.7
2017-03-20T09:49:04.164Z,11.76
2017-03-20T09:50:04.193Z,11.7
2017-03-20T09:51:04.226Z,11.68
2017-03-20T09:52:04.258Z,11.68
2017-03-20T09:53:04.295Z,11.71
2017-03-20T09:54:04.325Z,11.68
2017-03-20T09:55:04.353Z,11.67
2017-03-20T09:56:04.392Z,11.67
2017-03-20T09:57:04.412Z,11.66
2017-03-20T09:58:04.438Z,11.76
2017-03-20T09:59:04.494Z,11.76
2017-03-20T10:00:04.679Z,11.82
2017-03-20T10:01:04.524Z,11.81
2017-03-20T10:02:04.612Z,11.89
2017-03-20T10:03:04.600Z,11.91
2017-03-20T10:04:04.631Z,12.04
2017-03-20T10:05:04.664Z,12.11
2017-03-20T10:06:04.703Z,12.25
2017-03-20T10:07:04.729Z,12.31
2017-03-20T10:08:04.764Z,12.45
2017-03-20T10:09:04.785Z,12.53
2017-03-20T10:10:04.835Z,12.66
2017-03-20T10:11:04.851Z,12.7
2017-03-20T10:12:04.885Z,12.73
2017-03-20T10:13:04.929Z,12.74
2017-03-20T10:14:04.946Z,12.73
2017-03-20T10:15:04.985Z,12.78
2017-03-20T10:16:05.010Z,12.83
2017-03-20T10:17:05.026Z,12.88
2017-03-20T10:18:05.083Z,12.95
2017-03-20T10:19:05.116Z,13.1
2017-03-20T10:20:05.132Z,13.25
2017-03-20T10:21:05.168Z,13.47
2017-03-20T10:22:05.200Z,13.66
2017-03-20T10:23:05.235Z,13.6
2017-03-20T10:24:05.264Z,13.76
2017-03-20T10:25:05.300Z,13.91
2017-03-20T10:26:05.334Z,13.91
2017-03-20T10:27:05.359Z,13.94
2017-03-20T10:28:05.384Z,13.93
2017-03-20T10:29:05.438Z,13.75
2017-03-20T10:30:05.469Z,13.7
2017-03-20T10:31:05.501Z,13.65
2017-03-20T10:32:05.528Z,13.54
2017-03-20T10:33:05.557Z,13.53
2017-03-20T10:34:05.588Z,13.54
2017-03-20T10:35:05.618Z,13.4
2017-03-20T10:36:05.670Z,13.24
2017-03-20T10:37:05.687Z,13.13
2017-03-20T10:38:05.731Z,13.13
2017-03-20T10:39:05.783Z,12.98
2017-03-20T10:40:05.786Z,13.1
2017-03-20T10:41:06.117Z,13.1
2017-03-20T10:42:05.860Z,13.07
2017-03-20T10:43:05.900Z,13.14
2017-03-20T10:44:05.971Z,13.17
2017-03-20T10:45:05.961Z,13.29
2017-03-20T10:46:05.986Z,13.4
2017-03-20T10:47:06.021Z,13.51
2017-03-20T10:48:06.054Z,13.47
2017-03-20T10:49:06.084Z,13.55
2017-03-20T10:50:06.163Z,13.53
2017-03-20T10:51:06.247Z,13.66
2017-03-20T10:52:06.182Z,13.63
2017-03-20T10:53:06.217Z,13.58
2017-03-20T10:54:06.232Z,13.62
2017-03-20T10:55:06.300Z,13.55
2017-03-20T10:56:06.319Z,13.66
2017-03-20T10:57:06.326Z,13.55
2017-03-20T10:58:06.375Z,13.62
2017-03-20T10:59:06.434Z,13.53
2017-03-20T11:00:06.671Z,13.53
2017-03-20T11:01:06.487Z,13.47
2017-03-20T11:02:06.495Z,13.4
2017-03-20T11:03:06.527Z,13.51
2017-03-20T11:04:06.576Z,13.65
2017-03-20T11:05:06.638Z,13.53
2017-03-20T11:06:06.634Z,13.79
2017-03-20T11:07:06.672Z,13.81
2017-03-20T11:08:06.709Z,13.65
2017-03-20T11:09:06.739Z,13.63
2017-03-20T11:10:06.750Z,13.66
2017-03-20T11:11:06.800Z,13.6
2017-03-20T11:12:06.818Z,13.54
2017-03-20T11:13:06.871Z,13.51
2017-03-20T11:14:06.907Z,13.55
2017-03-20T11:15:06.918Z,13.45
2017-03-20T11:16:06.979Z,13.42
2017-03-20T11:17:06.990Z,13.47
2017-03-20T11:18:07.029Z,13.47
2017-03-20T11:19:07.066Z,13.53
2017-03-20T11:20:07.079Z,13.47
2017-03-20T11:21:07.125Z,13.48
2017-03-20T11:22:07.166Z,13.5
2017-03-20T11:23:07.184Z,13.51
2017-03-20T11:24:07.229Z,13.65
2017-03-20T11:25:07.273Z,13.63
2017-03-20T11:26:07.298Z,13.58
2017-03-20T11:27:07.329Z,13.6
2017-03-20T11:28:07.357Z,13.66
2017-03-20T11:29:07.397Z,13.68
2017-03-20T11:30:07.445Z,13.69
2017-03-20T11:31:07.473Z,13.7
2017-03-20T11:32:07.509Z,13.7
2017-03-20T11:33:07.519Z,13.79
2017-03-20T11:34:07.593Z,13.69
2017-03-20T11:35:07.738Z,13.84
2017-03-20T11:36:07.625Z,13.81
2017-03-20T11:37:07.636Z,13.83
2017-03-20T11:38:07.754Z,13.87
2017-03-20T11:39:07.709Z,13.87
2017-03-20T11:40:08.013Z,13.84
2017-03-20T11:41:07.787Z,13.79
2017-03-20T11:42:07.823Z,13.72
2017-03-20T11:43:07.857Z,13.73
2017-03-20T11:44:07.877Z,13.78
2017-03-20T11:45:07.916Z,13.75
2017-03-20T11:46:07.934Z,13.68
2017-03-20T11:47:07.993Z,13.58
2017-03-20T11:48:07.997Z,13.63
2017-03-20T11:49:08.033Z,13.63
2017-03-20T11:50:08.079Z,13.68
2017-03-20T11:51:08.106Z,13.54
2017-03-20T11:52:08.133Z,13.62
2017-03-20T11:53:08.204Z,13.68
2017-03-20T11:54:08.207Z,13.5
2017-03-20T11:55:08.247Z,13.53
2017-03-20T11:56:08.271Z,13.51
2017-03-20T11:57:08.301Z,13.65
2017-03-20T11:58:08.338Z,13.57
2017-03-20T11:59:08.374Z,13.73
2017-03-20T12:00:08.626Z,13.72
2017-03-20T12:01:08.447Z,13.86
2017-03-20T12:02:08.477Z,13.88
2017-03-20T12:03:08.496Z,13.83
2017-03-20T12:04:08.538Z,13.79
2017-03-20T12:05:08.578Z,13.78
2017-03-20T12:06:08.832Z,13.7
2017-03-20T12:07:08.686Z,13.6
2017-03-20T12:08:08.641Z,13.58
2017-03-20T12:09:08.697Z,13.6
2017-03-20T12:10:08.738Z,13.58
2017-03-20T12:11:08.770Z,13.63
2017-03-20T12:12:08.795Z,13.57
2017-03-20T12:13:08.835Z,13.69
2017-03-20T12:14:08.868Z,13.73
2017-03-20T12:15:08.914Z,13.68
2017-03-20T12:16:08.938Z,13.75
2017-03-20T12:17:08.973Z,13.88
2017-03-20T12:18:09.010Z,13.94
2017-03-20T12:19:09.034Z,13.9
2017-03-20T12:20:09.068Z,13.9
2017-03-20T12:21:09.097Z,13.87
2017-03-20T12:22:09.130Z,13.79
2017-03-20T12:23:09.166Z,13.81
2017-03-20T12:24:09.205Z,13.69
2017-03-20T12:25:09.448Z,13.87
2017-03-20T12:26:09.260Z,13.88
2017-03-20T12:27:09.293Z,13.95
2017-03-20T12:28:09.345Z,13.95
2017-03-20T12:29:09.359Z,14.03
2017-03-20T12:30:09.417Z,13.99
2017-03-20T12:31:09.426Z,14.05
2017-03-20T12:32:09.458Z,14.01
2017-03-20T12:33:09.500Z,13.94
2017-03-20T12:34:09.517Z,13.76
2017-03-20T12:35:09.557Z,13.75
2017-03-20T12:36:09.603Z,13.66
2017-03-20T12:37:09.619Z,13.68
2017-03-20T12:38:09.654Z,13.75
2017-03-20T12:39:09.733Z,13.65
2017-03-20T12:40:09.767Z,13.57
2017-03-20T12:41:09.761Z,13.62
2017-03-20T12:42:09.804Z,13.5
2017-03-20T12:43:09.821Z,13.53
2017-03-20T12:44:09.856Z,13.48
2017-03-20T12:45:09.880Z,13.5
2017-03-20T12:46:09.925Z,13.54
2017-03-20T12:47:09.994Z,13.48
2017-03-20T12:48:09.978Z,13.48
2017-03-20T12:49:10.025Z,13.53
2017-03-20T12:50:10.064Z,13.55
2017-03-20T12:51:10.097Z,13.53
2017-03-20T12:52:10.134Z,13.54
2017-03-20T12:53:10.158Z,13.53
2017-03-20T12:54:10.225Z,13.48
2017-03-20T12:55:10.227Z,13.5
2017-03-20T12:56:10.266Z,13.45
2017-03-20T12:57:10.292Z,13.66
2017-03-20T12:58:10.324Z,13.6
2017-03-20T12:59:10.369Z,13.68
2017-03-20T13:00:10.381Z,13.87
2017-03-20T13:01:10.423Z,13.81
2017-03-20T13:02:10.452Z,13.95
2017-03-20T13:03:10.490Z,13.99
2017-03-20T13:04:10.519Z,14.11
2017-03-20T13:05:10.549Z,14.13
2017-03-20T13:06:10.572Z,14.19
2017-03-20T13:07:10.625Z,14.11
2017-03-20T13:08:10.653Z,14.12
2017-03-20T13:09:10.682Z,14.12
2017-03-20T13:10:10.745Z,14.09
2017-03-20T13:11:10.737Z,14.05